sensor_id;sensor_type;location;lat;lon;timestamp;P1;durP1;ratioP1;P2;durP2;ratioP2
27558;SDS011;15002;52.028;5.670;2023-03-26T00:02:04;15.45;;;3.40;;
27558;SDS011;15002;52.028;5.670;2023-03-26T00:04:30;15.38;;;4.70;;
27558;SDS011;15002;52.028;5.670;2023-03-26T00:06:57;23.38;;;6.88;;
27558;SDS011;15002;52.028;5.670;2023-03-26T00:09:24;17.90;;;8.10;;
27558;SDS011;15002;52.028;5.670;2023-03-26T00:11:49;23.10;;;9.05;;
27558;SDS011;15002;52.028;5.670;2023-03-26T00:14:16;25.38;;;10.73;;
27558;SDS011;15002;52.028;5.670;2023-03-26T00:16:42;22.60;;;10.10;;
27558;SDS011;15002;52.028;5.670;2023-03-26T00:19:08;23.40;;;7.60;;
27558;SDS011;15002;52.028;5.670;2023-03-26T00:21:35;18.23;;;5.65;;
27558;SDS011;15002;52.028;5.670;2023-03-26T00:24:05;13.13;;;4.18;;
27558;SDS011;15002;52.028;5.670;2023-03-26T00:26:34;18.30;;;6.25;;
27558;SDS011;15002;52.028;5.670;2023-03-26T00:29:02;17.60;;;3.53;;
27558;SDS011;15002;52.028;5.670;2023-03-26T00:31:28;14.88;;;3.53;;
27558;SDS011;15002;52.028;5.670;2023-03-26T00:33:54;13.30;;;3.00;;
27558;SDS011;15002;52.028;5.670;2023-03-26T00:36:21;14.35;;;3.05;;
27558;SDS011;15002;52.028;5.670;2023-03-26T00:38:49;20.65;;;3.80;;
27558;SDS011;15002;52.028;5.670;2023-03-26T00:41:16;19.00;;;3.22;;
27558;SDS011;15002;52.028;5.670;2023-03-26T00:43:47;20.67;;;4.10;;
27558;SDS011;15002;52.028;5.670;2023-03-26T00:46:15;26.88;;;3.40;;
27558;SDS011;15002;52.028;5.670;2023-03-26T00:48:41;17.60;;;3.30;;
27558;SDS011;15002;52.028;5.670;2023-03-26T00:51:08;22.52;;;3.67;;
27558;SDS011;15002;52.028;5.670;2023-03-26T00:53:35;25.90;;;4.28;;
27558;SDS011;15002;52.028;5.670;2023-03-26T00:56:02;24.17;;;4.22;;
27558;SDS011;15002;52.028;5.670;2023-03-26T00:58:29;28.40;;;4.13;;
27558;SDS011;15002;52.028;5.670;2023-03-26T01:00:56;26.23;;;4.75;;
27558;SDS011;15002;52.028;5.670;2023-03-26T01:03:25;19.90;;;4.30;;
27558;SDS011;15002;52.028;5.670;2023-03-26T01:06:01;25.67;;;5.05;;
27558;SDS011;15002;52.028;5.670;2023-03-26T01:08:51;23.42;;;4.60;;
27558;SDS011;15002;52.028;5.670;2023-03-26T01:11:24;19.63;;;4.68;;
27558;SDS011;15002;52.028;5.670;2023-03-26T01:13:55;34.83;;;5.15;;
27558;SDS011;15002;52.028;5.670;2023-03-26T01:16:31;25.60;;;4.97;;
27558;SDS011;15002;52.028;5.670;2023-03-26T01:19:01;26.45;;;5.38;;
27558;SDS011;15002;52.028;5.670;2023-03-26T01:21:34;24.90;;;4.97;;
27558;SDS011;15002;52.028;5.670;2023-03-26T01:24:03;29.45;;;5.53;;
27558;SDS011;15002;52.028;5.670;2023-03-26T01:29:03;32.38;;;6.35;;
27558;SDS011;15002;52.028;5.670;2023-03-26T01:31:36;33.08;;;6.22;;
27558;SDS011;15002;52.028;5.670;2023-03-26T01:34:36;36.22;;;5.95;;
27558;SDS011;15002;52.028;5.670;2023-03-26T01:37:22;29.25;;;5.65;;
27558;SDS011;15002;52.028;5.670;2023-03-26T01:40:02;28.02;;;5.25;;
27558;SDS011;15002;52.028;5.670;2023-03-26T01:45:38;28.30;;;6.45;;
27558;SDS011;15002;52.028;5.670;2023-03-26T01:48:06;28.63;;;6.03;;
27558;SDS011;15002;52.028;5.670;2023-03-26T01:50:33;32.95;;;6.28;;
27558;SDS011;15002;52.028;5.670;2023-03-26T01:52:59;26.08;;;5.72;;
27558;SDS011;15002;52.028;5.670;2023-03-26T01:55:27;36.30;;;5.90;;
27558;SDS011;15002;52.028;5.670;2023-03-26T01:58:16;24.73;;;6.13;;
27558;SDS011;15002;52.028;5.670;2023-03-26T02:00:53;37.85;;;6.95;;
27558;SDS011;15002;52.028;5.670;2023-03-26T02:03:31;29.80;;;6.90;;
27558;SDS011;15002;52.028;5.670;2023-03-26T02:09:16;35.90;;;6.55;;
27558;SDS011;15002;52.028;5.670;2023-03-26T02:11:48;26.73;;;5.72;;
27558;SDS011;15002;52.028;5.670;2023-03-26T02:14:15;32.55;;;6.32;;
27558;SDS011;15002;52.028;5.670;2023-03-26T02:16:41;27.27;;;5.95;;
27558;SDS011;15002;52.028;5.670;2023-03-26T02:19:11;26.33;;;6.97;;
27558;SDS011;15002;52.028;5.670;2023-03-26T02:21:39;29.52;;;6.20;;
27558;SDS011;15002;52.028;5.670;2023-03-26T02:24:05;30.65;;;6.63;;
27558;SDS011;15002;52.028;5.670;2023-03-26T02:26:32;27.83;;;6.03;;
27558;SDS011;15002;52.028;5.670;2023-03-26T02:29:00;36.60;;;5.68;;
27558;SDS011;15002;52.028;5.670;2023-03-26T02:31:26;35.22;;;6.18;;
27558;SDS011;15002;52.028;5.670;2023-03-26T02:33:52;29.45;;;5.13;;
27558;SDS011;15002;52.028;5.670;2023-03-26T02:36:19;35.80;;;5.88;;
27558;SDS011;15002;52.028;5.670;2023-03-26T02:38:48;30.45;;;5.53;;
27558;SDS011;15002;52.028;5.670;2023-03-26T02:41:14;30.10;;;5.60;;
27558;SDS011;15002;52.028;5.670;2023-03-26T02:43:41;31.98;;;6.05;;
27558;SDS011;15002;52.028;5.670;2023-03-26T02:46:06;26.35;;;5.40;;
27558;SDS011;15002;52.028;5.670;2023-03-26T02:48:32;25.17;;;5.45;;
27558;SDS011;15002;52.028;5.670;2023-03-26T02:50:59;34.83;;;6.13;;
27558;SDS011;15002;52.028;5.670;2023-03-26T02:53:25;32.50;;;6.05;;
27558;SDS011;15002;52.028;5.670;2023-03-26T02:55:54;32.65;;;5.72;;
27558;SDS011;15002;52.028;5.670;2023-03-26T02:58:20;29.85;;;5.50;;
27558;SDS011;15002;52.028;5.670;2023-03-26T03:00:49;31.75;;;6.35;;
27558;SDS011;15002;52.028;5.670;2023-03-26T03:03:19;31.27;;;6.47;;
27558;SDS011;15002;52.028;5.670;2023-03-26T03:05:48;24.73;;;5.25;;
27558;SDS011;15002;52.028;5.670;2023-03-26T03:08:24;37.58;;;6.70;;
27558;SDS011;15002;52.028;5.670;2023-03-26T03:10:57;29.80;;;7.28;;
27558;SDS011;15002;52.028;5.670;2023-03-26T03:13:25;27.48;;;6.55;;
27558;SDS011;15002;52.028;5.670;2023-03-26T03:15:51;37.58;;;7.43;;
27558;SDS011;15002;52.028;5.670;2023-03-26T03:18:17;34.35;;;7.82;;
27558;SDS011;15002;52.028;5.670;2023-03-26T03:20:43;37.13;;;7.22;;
27558;SDS011;15002;52.028;5.670;2023-03-26T03:23:09;35.20;;;7.97;;
27558;SDS011;15002;52.028;5.670;2023-03-26T03:25:35;42.90;;;7.82;;
27558;SDS011;15002;52.028;5.670;2023-03-26T03:28:02;33.22;;;8.30;;
27558;SDS011;15002;52.028;5.670;2023-03-26T03:30:28;40.35;;;8.43;;
27558;SDS011;15002;52.028;5.670;2023-03-26T03:32:54;43.90;;;7.55;;
27558;SDS011;15002;52.028;5.670;2023-03-26T03:35:22;35.60;;;8.38;;
27558;SDS011;15002;52.028;5.670;2023-03-26T03:37:49;38.92;;;8.38;;
27558;SDS011;15002;52.028;5.670;2023-03-26T03:40:15;38.85;;;8.88;;
27558;SDS011;15002;52.028;5.670;2023-03-26T03:42:41;32.72;;;9.23;;
27558;SDS011;15002;52.028;5.670;2023-03-26T03:45:06;36.50;;;9.52;;
27558;SDS011;15002;52.028;5.670;2023-03-26T03:47:33;33.65;;;8.60;;
27558;SDS011;15002;52.028;5.670;2023-03-26T03:49:58;40.58;;;8.23;;
27558;SDS011;15002;52.028;5.670;2023-03-26T03:52:24;41.47;;;8.40;;
27558;SDS011;15002;52.028;5.670;2023-03-26T03:54:52;35.58;;;8.73;;
27558;SDS011;15002;52.028;5.670;2023-03-26T03:57:18;35.20;;;7.85;;
27558;SDS011;15002;52.028;5.670;2023-03-26T03:59:46;34.05;;;9.20;;
27558;SDS011;15002;52.028;5.670;2023-03-26T04:02:12;35.05;;;8.63;;
27558;SDS011;15002;52.028;5.670;2023-03-26T04:04:37;38.80;;;7.95;;
27558;SDS011;15002;52.028;5.670;2023-03-26T04:07:04;43.03;;;8.18;;
27558;SDS011;15002;52.028;5.670;2023-03-26T04:09:30;30.77;;;8.30;;
27558;SDS011;15002;52.028;5.670;2023-03-26T04:11:55;38.17;;;8.13;;
27558;SDS011;15002;52.028;5.670;2023-03-26T04:14:21;31.67;;;7.45;;
27558;SDS011;15002;52.028;5.670;2023-03-26T04:16:47;40.13;;;7.38;;
27558;SDS011;15002;52.028;5.670;2023-03-26T04:19:15;29.08;;;7.30;;
27558;SDS011;15002;52.028;5.670;2023-03-26T04:21:41;27.40;;;6.28;;
27558;SDS011;15002;52.028;5.670;2023-03-26T04:24:07;34.70;;;7.45;;
27558;SDS011;15002;52.028;5.670;2023-03-26T04:26:34;25.90;;;6.30;;
27558;SDS011;15002;52.028;5.670;2023-03-26T04:29:02;30.48;;;7.05;;
27558;SDS011;15002;52.028;5.670;2023-03-26T04:31:29;32.40;;;6.55;;
27558;SDS011;15002;52.028;5.670;2023-03-26T04:34:03;33.22;;;6.40;;
27558;SDS011;15002;52.028;5.670;2023-03-26T04:36:31;24.15;;;4.97;;
27558;SDS011;15002;52.028;5.670;2023-03-26T04:38:58;29.05;;;5.15;;
27558;SDS011;15002;52.028;5.670;2023-03-26T04:41:28;29.58;;;6.18;;
27558;SDS011;15002;52.028;5.670;2023-03-26T04:43:56;29.70;;;5.30;;
27558;SDS011;15002;52.028;5.670;2023-03-26T04:46:25;23.50;;;5.68;;
27558;SDS011;15002;52.028;5.670;2023-03-26T04:48:52;27.50;;;6.30;;
27558;SDS011;15002;52.028;5.670;2023-03-26T04:51:23;22.40;;;5.38;;
27558;SDS011;15002;52.028;5.670;2023-03-26T04:53:55;30.55;;;6.50;;
27558;SDS011;15002;52.028;5.670;2023-03-26T04:59:19;22.85;;;5.68;;
27558;SDS011;15002;52.028;5.670;2023-03-26T05:01:59;29.30;;;5.25;;
27558;SDS011;15002;52.028;5.670;2023-03-26T05:04:26;30.95;;;6.68;;
27558;SDS011;15002;52.028;5.670;2023-03-26T05:06:56;29.20;;;6.32;;
27558;SDS011;15002;52.028;5.670;2023-03-26T05:09:22;29.63;;;5.82;;
27558;SDS011;15002;52.028;5.670;2023-03-26T05:11:48;24.40;;;5.70;;
27558;SDS011;15002;52.028;5.670;2023-03-26T05:14:15;36.65;;;6.22;;
27558;SDS011;15002;52.028;5.670;2023-03-26T05:16:41;29.10;;;6.00;;
27558;SDS011;15002;52.028;5.670;2023-03-26T05:19:08;35.88;;;6.70;;
27558;SDS011;15002;52.028;5.670;2023-03-26T05:21:34;32.13;;;6.75;;
27558;SDS011;15002;52.028;5.670;2023-03-26T05:24:00;31.13;;;6.40;;
27558;SDS011;15002;52.028;5.670;2023-03-26T05:26:26;33.60;;;7.00;;
27558;SDS011;15002;52.028;5.670;2023-03-26T05:28:53;33.80;;;6.03;;
27558;SDS011;15002;52.028;5.670;2023-03-26T05:31:20;31.65;;;7.25;;
27558;SDS011;15002;52.028;5.670;2023-03-26T05:33:46;33.33;;;6.78;;
27558;SDS011;15002;52.028;5.670;2023-03-26T05:36:12;28.77;;;6.50;;
27558;SDS011;15002;52.028;5.670;2023-03-26T05:38:39;27.55;;;6.60;;
27558;SDS011;15002;52.028;5.670;2023-03-26T05:41:07;24.60;;;6.35;;
27558;SDS011;15002;52.028;5.670;2023-03-26T05:43:33;30.77;;;5.82;;
27558;SDS011;15002;52.028;5.670;2023-03-26T05:46:00;24.02;;;6.50;;
27558;SDS011;15002;52.028;5.670;2023-03-26T05:48:26;25.23;;;6.07;;
27558;SDS011;15002;52.028;5.670;2023-03-26T05:50:53;27.83;;;5.78;;
27558;SDS011;15002;52.028;5.670;2023-03-26T05:53:20;27.85;;;5.85;;
27558;SDS011;15002;52.028;5.670;2023-03-26T05:55:48;25.48;;;5.90;;
27558;SDS011;15002;52.028;5.670;2023-03-26T05:58:25;22.08;;;4.95;;
27558;SDS011;15002;52.028;5.670;2023-03-26T06:00:58;24.65;;;5.68;;
27558;SDS011;15002;52.028;5.670;2023-03-26T06:03:29;31.40;;;5.15;;
27558;SDS011;15002;52.028;5.670;2023-03-26T06:05:56;24.40;;;5.30;;
27558;SDS011;15002;52.028;5.670;2023-03-26T06:08:23;28.48;;;5.13;;
27558;SDS011;15002;52.028;5.670;2023-03-26T06:10:48;29.38;;;5.05;;
27558;SDS011;15002;52.028;5.670;2023-03-26T06:13:15;25.65;;;5.13;;
27558;SDS011;15002;52.028;5.670;2023-03-26T06:15:41;27.02;;;4.65;;
27558;SDS011;15002;52.028;5.670;2023-03-26T06:18:07;25.27;;;5.32;;
27558;SDS011;15002;52.028;5.670;2023-03-26T06:20:33;26.75;;;4.47;;
27558;SDS011;15002;52.028;5.670;2023-03-26T06:22:58;30.20;;;5.18;;
27558;SDS011;15002;52.028;5.670;2023-03-26T06:25:24;27.10;;;4.50;;
27558;SDS011;15002;52.028;5.670;2023-03-26T06:27:50;32.67;;;4.97;;
27558;SDS011;15002;52.028;5.670;2023-03-26T06:30:15;26.17;;;5.28;;
27558;SDS011;15002;52.028;5.670;2023-03-26T06:32:41;27.00;;;5.38;;
27558;SDS011;15002;52.028;5.670;2023-03-26T06:35:06;20.63;;;4.72;;
27558;SDS011;15002;52.028;5.670;2023-03-26T06:37:32;22.45;;;5.38;;
27558;SDS011;15002;52.028;5.670;2023-03-26T06:39:58;25.40;;;4.63;;
27558;SDS011;15002;52.028;5.670;2023-03-26T06:42:24;22.45;;;4.63;;
27558;SDS011;15002;52.028;5.670;2023-03-26T06:44:49;23.98;;;4.55;;
27558;SDS011;15002;52.028;5.670;2023-03-26T06:47:15;24.45;;;4.55;;
27558;SDS011;15002;52.028;5.670;2023-03-26T06:49:41;18.40;;;4.13;;
27558;SDS011;15002;52.028;5.670;2023-03-26T06:52:06;27.75;;;4.72;;
27558;SDS011;15002;52.028;5.670;2023-03-26T06:54:32;27.10;;;5.80;;
27558;SDS011;15002;52.028;5.670;2023-03-26T06:56:57;29.08;;;4.43;;
27558;SDS011;15002;52.028;5.670;2023-03-26T06:59:23;20.67;;;4.22;;
27558;SDS011;15002;52.028;5.670;2023-03-26T07:01:49;28.33;;;4.75;;
27558;SDS011;15002;52.028;5.670;2023-03-26T07:04:15;23.98;;;5.03;;
27558;SDS011;15002;52.028;5.670;2023-03-26T07:06:41;21.02;;;4.50;;
27558;SDS011;15002;52.028;5.670;2023-03-26T07:09:07;26.05;;;4.45;;
27558;SDS011;15002;52.028;5.670;2023-03-26T07:11:32;20.73;;;4.03;;
27558;SDS011;15002;52.028;5.670;2023-03-26T07:13:58;22.98;;;5.35;;
27558;SDS011;15002;52.028;5.670;2023-03-26T07:16:24;22.20;;;4.82;;
27558;SDS011;15002;52.028;5.670;2023-03-26T07:18:49;24.63;;;4.15;;
27558;SDS011;15002;52.028;5.670;2023-03-26T07:21:16;23.67;;;4.65;;
27558;SDS011;15002;52.028;5.670;2023-03-26T07:23:43;28.33;;;4.47;;
27558;SDS011;15002;52.028;5.670;2023-03-26T07:26:24;27.85;;;5.15;;
27558;SDS011;15002;52.028;5.670;2023-03-26T07:31:40;24.27;;;4.82;;
27558;SDS011;15002;52.028;5.670;2023-03-26T07:37:21;27.73;;;4.93;;
27558;SDS011;15002;52.028;5.670;2023-03-26T07:40:02;26.67;;;4.90;;
27558;SDS011;15002;52.028;5.670;2023-03-26T07:48:19;19.23;;;4.68;;
27558;SDS011;15002;52.028;5.670;2023-03-26T07:50:50;28.00;;;4.75;;
27558;SDS011;15002;52.028;5.670;2023-03-26T07:53:16;31.55;;;5.15;;
27558;SDS011;15002;52.028;5.670;2023-03-26T07:55:48;22.60;;;4.78;;
27558;SDS011;15002;52.028;5.670;2023-03-26T08:06:58;26.88;;;5.80;;
27558;SDS011;15002;52.028;5.670;2023-03-26T08:09:46;22.60;;;5.20;;
27558;SDS011;15002;52.028;5.670;2023-03-26T08:12:54;25.38;;;5.40;;
27558;SDS011;15002;52.028;5.670;2023-03-26T08:15:28;25.08;;;6.15;;
27558;SDS011;15002;52.028;5.670;2023-03-26T08:18:03;30.15;;;6.13;;
27558;SDS011;15002;52.028;5.670;2023-03-26T08:20:39;34.10;;;6.63;;
27558;SDS011;15002;52.028;5.670;2023-03-26T08:29:00;34.55;;;6.65;;
27558;SDS011;15002;52.028;5.670;2023-03-26T08:31:35;29.92;;;6.57;;
27558;SDS011;15002;52.028;5.670;2023-03-26T08:34:03;21.85;;;7.43;;
27558;SDS011;15002;52.028;5.670;2023-03-26T08:36:29;32.90;;;7.00;;
27558;SDS011;15002;52.028;5.670;2023-03-26T08:38:55;25.58;;;6.95;;
27558;SDS011;15002;52.028;5.670;2023-03-26T08:49:11;28.83;;;8.52;;
27558;SDS011;15002;52.028;5.670;2023-03-26T09:06:27;26.50;;;9.10;;
27558;SDS011;15002;52.028;5.670;2023-03-26T09:15:19;17.58;;;7.50;;
27558;SDS011;15002;52.028;5.670;2023-03-26T09:35:09;20.45;;;6.47;;
27558;SDS011;15002;52.028;5.670;2023-03-26T09:40:27;23.17;;;7.95;;
27558;SDS011;15002;52.028;5.670;2023-03-26T09:43:19;21.40;;;7.30;;
27558;SDS011;15002;52.028;5.670;2023-03-26T09:54:58;17.48;;;7.45;;
27558;SDS011;15002;52.028;5.670;2023-03-26T10:07:04;15.90;;;7.10;;
27558;SDS011;15002;52.028;5.670;2023-03-26T10:17:54;19.90;;;7.28;;
27558;SDS011;15002;52.028;5.670;2023-03-26T10:20:32;16.73;;;8.18;;
27558;SDS011;15002;52.028;5.670;2023-03-26T10:37:03;11.38;;;6.18;;
27558;SDS011;15002;52.028;5.670;2023-03-26T10:48:50;18.90;;;8.52;;
27558;SDS011;15002;52.028;5.670;2023-03-26T10:51:35;22.25;;;10.43;;
27558;SDS011;15002;52.028;5.670;2023-03-26T10:57:16;21.55;;;10.45;;
27558;SDS011;15002;52.028;5.670;2023-03-26T10:59:50;28.13;;;10.43;;
27558;SDS011;15002;52.028;5.670;2023-03-26T11:02:29;19.42;;;9.75;;
27558;SDS011;15002;52.028;5.670;2023-03-26T11:05:23;22.85;;;10.65;;
27558;SDS011;15002;52.028;5.670;2023-03-26T11:13:02;19.88;;;10.05;;
27558;SDS011;15002;52.028;5.670;2023-03-26T11:16:08;22.42;;;10.02;;
27558;SDS011;15002;52.028;5.670;2023-03-26T11:18:48;22.45;;;10.27;;
27558;SDS011;15002;52.028;5.670;2023-03-26T11:21:44;19.80;;;8.40;;
27558;SDS011;15002;52.028;5.670;2023-03-26T11:27:36;24.63;;;8.70;;
27558;SDS011;15002;52.028;5.670;2023-03-26T11:30:16;17.85;;;7.45;;
27558;SDS011;15002;52.028;5.670;2023-03-26T11:32:54;15.38;;;6.90;;
27558;SDS011;15002;52.028;5.670;2023-03-26T11:38:02;18.00;;;7.47;;
27558;SDS011;15002;52.028;5.670;2023-03-26T11:40:35;20.80;;;7.32;;
27558;SDS011;15002;52.028;5.670;2023-03-26T11:43:06;17.33;;;7.20;;
27558;SDS011;15002;52.028;5.670;2023-03-26T11:45:37;18.58;;;7.10;;
27558;SDS011;15002;52.028;5.670;2023-03-26T11:48:11;14.15;;;6.50;;
27558;SDS011;15002;52.028;5.670;2023-03-26T11:50:43;15.57;;;6.50;;
27558;SDS011;15002;52.028;5.670;2023-03-26T11:53:16;19.15;;;6.60;;
27558;SDS011;15002;52.028;5.670;2023-03-26T11:55:48;20.60;;;5.72;;
27558;SDS011;15002;52.028;5.670;2023-03-26T11:58:26;12.55;;;5.07;;
27558;SDS011;15002;52.028;5.670;2023-03-26T12:01:12;24.10;;;6.00;;
27558;SDS011;15002;52.028;5.670;2023-03-26T12:03:39;16.38;;;4.78;;
27558;SDS011;15002;52.028;5.670;2023-03-26T12:06:09;21.65;;;5.00;;
27558;SDS011;15002;52.028;5.670;2023-03-26T12:08:56;16.58;;;4.45;;
27558;SDS011;15002;52.028;5.670;2023-03-26T12:11:26;11.15;;;3.90;;
27558;SDS011;15002;52.028;5.670;2023-03-26T12:13:58;10.95;;;4.15;;
27558;SDS011;15002;52.028;5.670;2023-03-26T12:16:26;20.60;;;4.47;;
27558;SDS011;15002;52.028;5.670;2023-03-26T12:19:02;15.95;;;4.18;;
27558;SDS011;15002;52.028;5.670;2023-03-26T12:21:42;18.92;;;4.53;;
27558;SDS011;15002;52.028;5.670;2023-03-26T12:26:58;18.50;;;4.18;;
27558;SDS011;15002;52.028;5.670;2023-03-26T12:29:26;18.20;;;4.38;;
27558;SDS011;15002;52.028;5.670;2023-03-26T12:32:01;23.80;;;4.95;;
27558;SDS011;15002;52.028;5.670;2023-03-26T12:34:31;16.88;;;3.78;;
27558;SDS011;15002;52.028;5.670;2023-03-26T12:36:59;10.32;;;3.17;;
27558;SDS011;15002;52.028;5.670;2023-03-26T12:41:55;14.05;;;4.68;;
27558;SDS011;15002;52.028;5.670;2023-03-26T12:44:29;15.52;;;3.78;;
27558;SDS011;15002;52.028;5.670;2023-03-26T12:47:15;18.25;;;3.85;;
27558;SDS011;15002;52.028;5.670;2023-03-26T12:49:42;16.85;;;4.75;;
27558;SDS011;15002;52.028;5.670;2023-03-26T12:55:08;11.73;;;3.10;;
27558;SDS011;15002;52.028;5.670;2023-03-26T13:03:28;18.98;;;2.85;;
27558;SDS011;15002;52.028;5.670;2023-03-26T13:11:16;12.63;;;3.83;;
27558;SDS011;15002;52.028;5.670;2023-03-26T13:14:14;18.77;;;3.65;;
27558;SDS011;15002;52.028;5.670;2023-03-26T13:17:03;13.43;;;3.55;;
27558;SDS011;15002;52.028;5.670;2023-03-26T13:19:41;15.20;;;3.28;;
27558;SDS011;15002;52.028;5.670;2023-03-26T13:25:01;11.18;;;3.30;;
27558;SDS011;15002;52.028;5.670;2023-03-26T13:30:27;16.45;;;3.55;;
27558;SDS011;15002;52.028;5.670;2023-03-26T13:33:05;14.82;;;2.97;;
27558;SDS011;15002;52.028;5.670;2023-03-26T13:38:13;11.35;;;2.63;;
27558;SDS011;15002;52.028;5.670;2023-03-26T13:51:51;13.52;;;2.92;;
27558;SDS011;15002;52.028;5.670;2023-03-26T13:57:23;13.55;;;3.08;;
27558;SDS011;15002;52.028;5.670;2023-03-26T13:59:59;14.73;;;2.92;;
27558;SDS011;15002;52.028;5.670;2023-03-26T14:02:35;12.93;;;2.50;;
27558;SDS011;15002;52.028;5.670;2023-03-26T14:05:15;12.63;;;2.63;;
27558;SDS011;15002;52.028;5.670;2023-03-26T14:07:45;19.90;;;3.00;;
27558;SDS011;15002;52.028;5.670;2023-03-26T14:10:28;11.55;;;2.80;;
27558;SDS011;15002;52.028;5.670;2023-03-26T14:13:16;9.73;;;2.35;;
27558;SDS011;15002;52.028;5.670;2023-03-26T14:15:56;12.45;;;2.95;;
27558;SDS011;15002;52.028;5.670;2023-03-26T14:24:15;7.45;;;1.60;;
27558;SDS011;15002;52.028;5.670;2023-03-26T14:27:30;12.02;;;1.88;;
27558;SDS011;15002;52.028;5.670;2023-03-26T14:38:16;12.57;;;2.00;;
27558;SDS011;15002;52.028;5.670;2023-03-26T14:40:50;12.77;;;2.15;;
27558;SDS011;15002;52.028;5.670;2023-03-26T14:43:26;9.48;;;1.88;;
27558;SDS011;15002;52.028;5.670;2023-03-26T14:52:00;11.50;;;1.95;;
27558;SDS011;15002;52.028;5.670;2023-03-26T14:54:38;11.27;;;2.30;;
27558;SDS011;15002;52.028;5.670;2023-03-26T15:11:13;8.60;;;1.80;;
27558;SDS011;15002;52.028;5.670;2023-03-26T15:13:47;6.10;;;1.60;;
27558;SDS011;15002;52.028;5.670;2023-03-26T15:30:15;11.50;;;2.20;;
27558;SDS011;15002;52.028;5.670;2023-03-26T15:42:13;11.73;;;2.28;;
27558;SDS011;15002;52.028;5.670;2023-03-26T15:44:42;7.90;;;1.58;;
27558;SDS011;15002;52.028;5.670;2023-03-26T15:52:50;13.25;;;2.53;;
27558;SDS011;15002;52.028;5.670;2023-03-26T15:55:42;12.13;;;2.03;;
27558;SDS011;15002;52.028;5.670;2023-03-26T16:01:24;7.22;;;2.25;;
27558;SDS011;15002;52.028;5.670;2023-03-26T16:06:54;17.40;;;1.88;;
27558;SDS011;15002;52.028;5.670;2023-03-26T16:09:32;8.77;;;1.75;;
27558;SDS011;15002;52.028;5.670;2023-03-26T16:12:25;9.98;;;2.53;;
27558;SDS011;15002;52.028;5.670;2023-03-26T16:15:18;8.57;;;1.98;;
27558;SDS011;15002;52.028;5.670;2023-03-26T16:23:18;15.50;;;2.58;;
27558;SDS011;15002;52.028;5.670;2023-03-26T16:28:35;12.82;;;2.20;;
27558;SDS011;15002;52.028;5.670;2023-03-26T16:31:22;14.27;;;2.35;;
27558;SDS011;15002;52.028;5.670;2023-03-26T16:33:56;12.55;;;1.55;;
27558;SDS011;15002;52.028;5.670;2023-03-26T16:36:44;7.07;;;1.70;;
27558;SDS011;15002;52.028;5.670;2023-03-26T16:39:18;10.98;;;2.08;;
27558;SDS011;15002;52.028;5.670;2023-03-26T16:41:54;8.38;;;1.70;;
27558;SDS011;15002;52.028;5.670;2023-03-26T16:47:25;17.17;;;2.10;;
27558;SDS011;15002;52.028;5.670;2023-03-26T16:52:34;10.85;;;1.88;;
27558;SDS011;15002;52.028;5.670;2023-03-26T16:55:13;5.57;;;1.42;;
27558;SDS011;15002;52.028;5.670;2023-03-26T17:03:15;9.00;;;1.75;;
27558;SDS011;15002;52.028;5.670;2023-03-26T17:05:49;6.43;;;2.80;;
27558;SDS011;15002;52.028;5.670;2023-03-26T17:08:33;13.13;;;2.03;;
27558;SDS011;15002;52.028;5.670;2023-03-26T17:25:27;9.25;;;1.52;;
27558;SDS011;15002;52.028;5.670;2023-03-26T17:28:10;9.70;;;1.48;;
27558;SDS011;15002;52.028;5.670;2023-03-26T17:41:11;10.82;;;1.60;;
27558;SDS011;15002;52.028;5.670;2023-03-26T17:46:35;8.07;;;1.63;;
27558;SDS011;15002;52.028;5.670;2023-03-26T17:49:12;8.40;;;1.92;;
27558;SDS011;15002;52.028;5.670;2023-03-26T17:52:03;7.57;;;1.90;;
27558;SDS011;15002;52.028;5.670;2023-03-26T17:54:42;10.98;;;1.88;;
27558;SDS011;15002;52.028;5.670;2023-03-26T17:59:56;6.45;;;1.80;;
27558;SDS011;15002;52.028;5.670;2023-03-26T18:02:34;5.32;;;1.50;;
27558;SDS011;15002;52.028;5.670;2023-03-26T18:05:06;5.25;;;1.45;;
27558;SDS011;15002;52.028;5.670;2023-03-26T18:15:48;11.30;;;2.15;;
27558;SDS011;15002;52.028;5.670;2023-03-26T18:18:36;6.03;;;1.15;;
27558;SDS011;15002;52.028;5.670;2023-03-26T18:21:29;7.20;;;1.45;;
27558;SDS011;15002;52.028;5.670;2023-03-26T18:24:02;8.30;;;1.50;;
27558;SDS011;15002;52.028;5.670;2023-03-26T18:26:37;5.60;;;1.58;;
27558;SDS011;15002;52.028;5.670;2023-03-26T18:29:10;7.32;;;1.80;;
27558;SDS011;15002;52.028;5.670;2023-03-26T18:31:54;9.45;;;1.35;;
27558;SDS011;15002;52.028;5.670;2023-03-26T18:34:25;6.70;;;1.63;;
27558;SDS011;15002;52.028;5.670;2023-03-26T18:36:58;6.35;;;1.45;;
27558;SDS011;15002;52.028;5.670;2023-03-26T18:39:36;8.98;;;1.92;;
27558;SDS011;15002;52.028;5.670;2023-03-26T18:42:02;8.25;;;1.52;;
27558;SDS011;15002;52.028;5.670;2023-03-26T18:44:30;6.10;;;1.52;;
27558;SDS011;15002;52.028;5.670;2023-03-26T18:47:00;8.60;;;2.13;;
27558;SDS011;15002;52.028;5.670;2023-03-26T18:49:30;13.47;;;2.03;;
27558;SDS011;15002;52.028;5.670;2023-03-26T18:51:56;9.93;;;1.77;;
27558;SDS011;15002;52.028;5.670;2023-03-26T18:54:22;8.93;;;1.10;;
27558;SDS011;15002;52.028;5.670;2023-03-26T18:56:49;9.50;;;1.42;;
27558;SDS011;15002;52.028;5.670;2023-03-26T18:59:21;11.35;;;2.35;;
27558;SDS011;15002;52.028;5.670;2023-03-26T19:01:54;11.35;;;1.55;;
27558;SDS011;15002;52.028;5.670;2023-03-26T19:04:27;4.43;;;1.77;;
27558;SDS011;15002;52.028;5.670;2023-03-26T19:06:55;8.10;;;1.60;;
27558;SDS011;15002;52.028;5.670;2023-03-26T19:09:21;11.57;;;2.22;;
27558;SDS011;15002;52.028;5.670;2023-03-26T19:11:49;11.40;;;2.22;;
27558;SDS011;15002;52.028;5.670;2023-03-26T19:14:21;7.25;;;1.70;;
27558;SDS011;15002;52.028;5.670;2023-03-26T19:16:52;8.95;;;1.63;;
27558;SDS011;15002;52.028;5.670;2023-03-26T19:19:24;6.75;;;1.77;;
27558;SDS011;15002;52.028;5.670;2023-03-26T19:21:54;12.32;;;2.17;;
27558;SDS011;15002;52.028;5.670;2023-03-26T19:24:20;9.45;;;1.52;;
27558;SDS011;15002;52.028;5.670;2023-03-26T19:26:47;10.05;;;2.22;;
27558;SDS011;15002;52.028;5.670;2023-03-26T19:29:16;7.65;;;1.40;;
27558;SDS011;15002;52.028;5.670;2023-03-26T19:31:50;8.02;;;1.33;;
27558;SDS011;15002;52.028;5.670;2023-03-26T19:37:15;5.30;;;1.25;;
27558;SDS011;15002;52.028;5.670;2023-03-26T19:39:50;10.48;;;1.35;;
27558;SDS011;15002;52.028;5.670;2023-03-26T19:42:19;6.93;;;1.40;;
27558;SDS011;15002;52.028;5.670;2023-03-26T19:44:50;9.63;;;1.98;;
27558;SDS011;15002;52.028;5.670;2023-03-26T19:47:20;9.35;;;1.80;;
27558;SDS011;15002;52.028;5.670;2023-03-26T19:52:20;8.75;;;1.88;;
27558;SDS011;15002;52.028;5.670;2023-03-26T19:57:29;9.27;;;1.42;;
27558;SDS011;15002;52.028;5.670;2023-03-26T19:59:56;8.43;;;1.17;;
27558;SDS011;15002;52.028;5.670;2023-03-26T20:02:22;13.75;;;2.17;;
27558;SDS011;15002;52.028;5.670;2023-03-26T20:04:49;8.10;;;1.40;;
27558;SDS011;15002;52.028;5.670;2023-03-26T20:07:16;11.80;;;2.00;;
27558;SDS011;15002;52.028;5.670;2023-03-26T20:09:44;8.20;;;2.42;;
27558;SDS011;15002;52.028;5.670;2023-03-26T20:12:10;6.30;;;1.38;;
27558;SDS011;15002;52.028;5.670;2023-03-26T20:14:37;8.23;;;1.63;;
27558;SDS011;15002;52.028;5.670;2023-03-26T20:17:05;9.00;;;1.55;;
27558;SDS011;15002;52.028;5.670;2023-03-26T20:19:35;6.40;;;1.52;;
27558;SDS011;15002;52.028;5.670;2023-03-26T20:22:02;9.43;;;1.63;;
27558;SDS011;15002;52.028;5.670;2023-03-26T20:24:28;7.43;;;1.40;;
27558;SDS011;15002;52.028;5.670;2023-03-26T20:26:56;9.75;;;1.70;;
27558;SDS011;15002;52.028;5.670;2023-03-26T20:29:21;5.85;;;1.27;;